Time;durP1;ratioP1;P1;durP2;ratioP2;P2;SDS_P1;SDS_P2;PMS_P1;PMS_P2;Temp;Humidity;BMP_temperature;BMP_pressure;BME280_temperature;BME280_humidity;BME280_pressure;Samples;Min_cycle;Max_cycle;Signal;HPM_P1;HPM_P2
2021/03/03 00:00:50;;;;;;;0.10;0.10;;;;;;;;;;4992129;28;20212;-70
2021/03/03 00:03:17;;;;;;;0.10;0.10;;;;;;;;;;5010646;28;20220;-67
2021/03/03 00:05:43;;;;;;;0.10;0.10;;;;;;;;;;4985252;28;20225;-67
2021/03/03 00:08:10;;;;;;;0.10;0.10;;;;;;;;;;4978157;28;20447;-68
2021/03/03 00:10:36;;;;;;;0.10;0.10;;;;;;;;;;4982313;28;20202;-69
2021/03/03 00:13:01;;;;;;;0.10;0.10;;;;;;;;;;5003062;28;20212;-68
2021/03/03 00:15:27;;;;;;;2.83;2.73;;;;;;;;;;5000485;28;20407;-68
2021/03/03 00:17:54;;;;;;;0.20;0.20;;;;;;;;;;4988071;28;20206;-68
2021/03/03 00:20:21;;;;;;;0.10;0.10;;;;;;;;;;4983648;28;20209;-67
2021/03/03 00:22:47;;;;;;;0.10;0.10;;;;;;;;;;4978014;28;20277;-68
2021/03/03 00:25:13;;;;;;;0.20;0.20;;;;;;;;;;4999619;28;20205;-69
2021/03/03 00:27:40;;;;;;;0.20;0.20;;;;;;;;;;5000633;28;20202;-68
2021/03/03 00:30:06;;;;;;;0.20;0.20;;;;;;;;;;4979521;28;20208;-68
2021/03/03 00:32:32;;;;;;;0.20;0.20;;;;;;;;;;5000166;28;20208;-67
2021/03/03 00:34:59;;;;;;;0.10;0.10;;;;;;;;;;5016062;28;20398;-69
2021/03/03 00:37:26;;;;;;;0.13;0.13;;;;;;;;;;4994727;28;20474;-69
2021/03/03 00:39:52;;;;;;;0.20;0.20;;;;;;;;;;4986552;28;21269;-68
2021/03/03 00:42:19;;;;;;;0.20;0.20;;;;;;;;;;4983178;28;20202;-68
2021/03/03 00:44:45;;;;;;;0.10;0.10;;;;;;;;;;4985189;28;20212;-68
2021/03/03 00:47:11;;;;;;;0.20;0.20;;;;;;;;;;4980327;28;20209;-72
2021/03/03 00:49:38;;;;;;;0.20;0.20;;;;;;;;;;4990975;28;20200;-68
2021/03/03 00:52:04;;;;;;;0.17;0.17;;;;;;;;;;5004536;28;20251;-68
2021/03/03 00:54:31;;;;;;;0.10;0.10;;;;;;;;;;4991450;28;20200;-68
2021/03/03 00:56:57;;;;;;;0.20;0.20;;;;;;;;;;5000540;28;20235;-69
2021/03/03 00:59:24;;;;;;;0.20;0.20;;;;;;;;;;4994446;28;20397;-69
2021/03/03 01:01:50;;;;;;;0.20;0.20;;;;;;;;;;4992201;28;20266;-68
2021/03/03 01:04:16;;;;;;;0.20;0.20;;;;;;;;;;4992742;28;20276;-68
2021/03/03 01:06:42;;;;;;;0.10;0.10;;;;;;;;;;5003388;28;20194;-68
2021/03/03 01:09:09;;;;;;;0.20;0.20;;;;;;;;;;4984351;28;20204;-68
2021/03/03 01:11:36;;;;;;;0.10;0.10;;;;;;;;;;4990009;28;20259;-68
2021/03/03 01:14:02;;;;;;;0.20;0.20;;;;;;;;;;4981424;28;20210;-68
2021/03/03 01:16:29;;;;;;;0.20;0.20;;;;;;;;;;4999528;28;20240;-68
2021/03/03 01:18:55;;;;;;;0.20;0.20;;;;;;;;;;5016204;28;20319;-68
2021/03/03 01:21:21;;;;;;;0.20;0.20;;;;;;;;;;4986780;28;20279;-67
2021/03/03 01:23:47;;;;;;;0.20;0.20;;;;;;;;;;5003433;28;20198;-68
2021/03/03 01:26:14;;;;;;;0.20;0.20;;;;;;;;;;4998413;28;20250;-68
2021/03/03 01:28:41;;;;;;;0.20;0.20;;;;;;;;;;5002876;28;20212;-68
2021/03/03 01:31:07;;;;;;;0.20;0.20;;;;;;;;;;4996558;28;20216;-68
2021/03/03 01:33:33;;;;;;;0.77;0.77;;;;;;;;;;4990312;28;20211;-68
2021/03/03 01:36:00;;;;;;;0.10;0.10;;;;;;;;;;4985618;28;20227;-70
2021/03/03 01:38:26;;;;;;;0.10;0.10;;;;;;;;;;4989098;28;20209;-70
2021/03/03 01:40:53;;;;;;;0.20;0.20;;;;;;;;;;4984500;28;20382;-67
2021/03/03 01:43:19;;;;;;;2.13;2.10;;;;;;;;;;4986462;28;20221;-69
2021/03/03 01:45:48;;;;;;;0.20;0.20;;;;;;;;;;4986688;28;20272;-69
2021/03/03 01:48:14;;;;;;;0.37;0.37;;;;;;;;;;5002358;28;20209;-67
2021/03/03 01:50:41;;;;;;;0.20;0.20;;;;;;;;;;4982091;28;20209;-69
2021/03/03 01:53:08;;;;;;;0.20;0.20;;;;;;;;;;4992552;28;20403;-67
2021/03/03 01:55:34;;;;;;;0.20;0.20;;;;;;;;;;5008342;28;20212;-67
2021/03/03 01:58:00;;;;;;;0.20;0.20;;;;;;;;;;5016523;28;20234;-68
2021/03/03 02:00:26;;;;;;;0.20;0.20;;;;;;;;;;4987498;28;20502;-68
2021/03/03 02:02:53;;;;;;;0.20;0.20;;;;;;;;;;5009449;28;20219;-68
2021/03/03 02:05:19;;;;;;;0.20;0.20;;;;;;;;;;5002171;28;20526;-68
2021/03/03 02:07:50;;;;;;;0.23;0.23;;;;;;;;;;4992028;28;20225;-68
2021/03/03 02:10:19;;;;;;;0.30;0.30;;;;;;;;;;4999613;28;20256;-69
2021/03/03 02:12:49;;;;;;;0.20;0.20;;;;;;;;;;4991380;28;20205;-68
2021/03/03 02:15:15;;;;;;;0.20;0.20;;;;;;;;;;5002263;28;20207;-68
2021/03/03 02:17:42;;;;;;;0.10;0.10;;;;;;;;;;4984551;28;20252;-67
2021/03/03 02:20:12;;;;;;;0.20;0.20;;;;;;;;;;4998279;28;20224;-69
2021/03/03 02:22:46;;;;;;;0.20;0.20;;;;;;;;;;4996997;28;20524;-68
2021/03/03 02:25:19;;;;;;;0.20;0.20;;;;;;;;;;4994733;28;20217;-67
2021/03/03 02:27:46;;;;;;;0.20;0.20;;;;;;;;;;5001696;28;20212;-67
2021/03/03 02:30:12;;;;;;;0.20;0.20;;;;;;;;;;4977136;28;20395;-68
2021/03/03 02:32:40;;;;;;;0.20;0.20;;;;;;;;;;4990277;28;20201;-68
2021/03/03 02:35:07;;;;;;;0.20;0.20;;;;;;;;;;4979998;28;20236;-69
2021/03/03 02:37:33;;;;;;;0.20;0.20;;;;;;;;;;4986443;28;20408;-68
2021/03/03 02:40:00;;;;;;;0.20;0.20;;;;;;;;;;4979901;28;20204;-68
2021/03/03 02:42:27;;;;;;;0.20;0.20;;;;;;;;;;4982847;28;20243;-68
2021/03/03 02:44:54;;;;;;;0.20;0.20;;;;;;;;;;5001180;28;20207;-69
2021/03/03 02:47:20;;;;;;;0.20;0.20;;;;;;;;;;4999165;28;20200;-69
2021/03/03 02:49:47;;;;;;;0.20;0.20;;;;;;;;;;4998261;28;20199;-68
2021/03/03 02:52:14;;;;;;;0.27;0.27;;;;;;;;;;5000345;28;20203;-68
2021/03/03 02:54:42;;;;;;;0.10;0.10;;;;;;;;;;4985284;28;20208;-70
2021/03/03 02:57:08;;;;;;;0.20;0.20;;;;;;;;;;5013405;28;20220;-68
2021/03/03 02:59:38;;;;;;;0.20;0.20;;;;;;;;;;4997650;28;20249;-69
2021/03/03 03:02:05;;;;;;;0.20;0.20;;;;;;;;;;5003575;28;20251;-69
2021/03/03 03:04:33;;;;;;;0.20;0.20;;;;;;;;;;4992087;28;20245;-68
2021/03/03 03:07:01;;;;;;;0.20;0.20;;;;;;;;;;5002197;28;20448;-68
2021/03/03 03:09:28;;;;;;;0.20;0.20;;;;;;;;;;5006338;28;20418;-67
2021/03/03 03:11:54;;;;;;;0.20;0.20;;;;;;;;;;4983216;28;20205;-68
2021/03/03 03:14:21;;;;;;;0.20;0.20;;;;;;;;;;5004321;28;20227;-68
2021/03/03 03:16:48;;;;;;;0.20;0.20;;;;;;;;;;5023069;28;20231;-68
2021/03/03 03:19:17;;;;;;;0.20;0.20;;;;;;;;;;4991777;28;20207;-69
2021/03/03 03:21:44;;;;;;;0.20;0.20;;;;;;;;;;5001602;28;20235;-68
2021/03/03 03:24:11;;;;;;;0.30;0.30;;;;;;;;;;4994258;28;20257;-68
2021/03/03 03:26:38;;;;;;;0.20;0.20;;;;;;;;;;4984324;28;20200;-68
2021/03/03 03:29:06;;;;;;;0.20;0.20;;;;;;;;;;4990440;28;20205;-69
2021/03/03 03:31:32;;;;;;;0.20;0.20;;;;;;;;;;5009120;28;20215;-69
2021/03/03 03:34:00;;;;;;;0.20;0.20;;;;;;;;;;5009545;28;20210;-69
2021/03/03 03:36:26;;;;;;;0.20;0.20;;;;;;;;;;4987830;28;20230;-69
2021/03/03 03:38:52;;;;;;;0.20;0.20;;;;;;;;;;4986650;28;20203;-68
2021/03/03 03:41:19;;;;;;;0.20;0.20;;;;;;;;;;5005962;28;20203;-69
2021/03/03 03:43:45;;;;;;;0.20;0.20;;;;;;;;;;5005655;28;20506;-68
2021/03/03 03:46:12;;;;;;;0.20;0.20;;;;;;;;;;4979604;28;20424;-69
2021/03/03 03:48:39;;;;;;;0.20;0.20;;;;;;;;;;4976068;28;20376;-69
2021/03/03 03:51:06;;;;;;;0.20;0.20;;;;;;;;;;4992223;28;20269;-68
2021/03/03 03:53:32;;;;;;;0.20;0.20;;;;;;;;;;5017054;28;20207;-69
2021/03/03 03:55:59;;;;;;;0.20;0.20;;;;;;;;;;4983915;28;20534;-69
2021/03/03 03:58:25;;;;;;;0.20;0.20;;;;;;;;;;4983539;28;20247;-68
2021/03/03 04:00:52;;;;;;;0.20;0.20;;;;;;;;;;4968644;28;20209;-68
2021/03/03 04:03:18;;;;;;;0.20;0.20;;;;;;;;;;4991513;28;20207;-69
2021/03/03 04:05:44;;;;;;;0.20;0.20;;;;;;;;;;4969670;28;20231;-68
2021/03/03 04:08:11;;;;;;;0.20;0.20;;;;;;;;;;4998966;28;20204;-67
2021/03/03 04:10:37;;;;;;;0.20;0.20;;;;;;;;;;4978045;28;20215;-68
2021/03/03 04:13:03;;;;;;;0.20;0.20;;;;;;;;;;4994757;28;20212;-67
2021/03/03 04:15:30;;;;;;;0.20;0.20;;;;;;;;;;4976467;28;20299;-69
2021/03/03 04:17:56;;;;;;;0.20;0.20;;;;;;;;;;4977842;28;20232;-69
2021/03/03 04:20:22;;;;;;;0.20;0.20;;;;;;;;;;5003966;28;20211;-68
2021/03/03 04:22:48;;;;;;;0.20;0.20;;;;;;;;;;5000271;28;20203;-68
2021/03/03 04:25:16;;;;;;;0.10;0.10;;;;;;;;;;4998653;28;20200;-69
2021/03/03 04:27:42;;;;;;;0.20;0.20;;;;;;;;;;4986554;28;20245;-68
2021/03/03 04:30:10;;;;;;;0.20;0.20;;;;;;;;;;4985119;28;20202;-69
2021/03/03 04:32:36;;;;;;;0.30;0.30;;;;;;;;;;4985213;28;20203;-68
2021/03/03 04:35:03;;;;;;;0.20;0.20;;;;;;;;;;4985043;28;20202;-67
2021/03/03 04:37:29;;;;;;;0.30;0.30;;;;;;;;;;4993463;28;20219;-69
2021/03/03 04:39:55;;;;;;;0.20;0.20;;;;;;;;;;4994022;28;20208;-68
2021/03/03 04:42:22;;;;;;;0.20;0.20;;;;;;;;;;4985312;28;20494;-69
2021/03/03 04:44:49;;;;;;;2.00;1.90;;;;;;;;;;4985403;28;20208;-69
2021/03/03 04:47:15;;;;;;;0.20;0.20;;;;;;;;;;4979095;28;20194;-69
2021/03/03 04:49:41;;;;;;;0.20;0.20;;;;;;;;;;5003716;28;20198;-68
2021/03/03 04:52:07;;;;;;;0.20;0.20;;;;;;;;;;5005362;28;20226;-68
2021/03/03 04:54:34;;;;;;;0.20;0.20;;;;;;;;;;4967589;28;20231;-68
2021/03/03 04:57:00;;;;;;;0.20;0.20;;;;;;;;;;4970799;28;20247;-69
2021/03/03 04:59:27;;;;;;;0.20;0.20;;;;;;;;;;5002890;28;20760;-68
2021/03/03 05:01:53;;;;;;;0.20;0.20;;;;;;;;;;5003108;28;20219;-69
2021/03/03 05:04:20;;;;;;;0.20;0.20;;;;;;;;;;4985854;28;20222;-69
2021/03/03 05:06:45;;;;;;;0.20;0.20;;;;;;;;;;5002638;28;20199;-69
2021/03/03 05:09:12;;;;;;;0.20;0.20;;;;;;;;;;4995849;28;20209;-69
2021/03/03 05:11:41;;;;;;;8.33;7.57;;;;;;;;;;4974835;28;20206;-69
2021/03/03 05:14:07;;;;;;;0.20;0.20;;;;;;;;;;5002728;28;20203;-68
2021/03/03 05:16:34;;;;;;;0.20;0.20;;;;;;;;;;4998986;28;20394;-68
2021/03/03 05:19:00;;;;;;;0.20;0.20;;;;;;;;;;4980172;28;20209;-68
2021/03/03 05:21:26;;;;;;;0.20;0.20;;;;;;;;;;4989552;28;20215;-69
2021/03/03 05:23:52;;;;;;;0.20;0.20;;;;;;;;;;4999068;28;20485;-69
2021/03/03 05:26:18;;;;;;;0.20;0.20;;;;;;;;;;5001208;28;20207;-68
2021/03/03 05:28:44;;;;;;;0.20;0.20;;;;;;;;;;4970447;28;20205;-68
2021/03/03 05:31:11;;;;;;;0.20;0.20;;;;;;;;;;4975090;28;20396;-69
2021/03/03 05:33:37;;;;;;;0.20;0.20;;;;;;;;;;4969435;28;20202;-69
2021/03/03 05:36:04;;;;;;;0.30;0.30;;;;;;;;;;4977396;28;20253;-68
2021/03/03 05:38:31;;;;;;;0.20;0.20;;;;;;;;;;4975274;28;20551;-68
2021/03/03 05:40:57;;;;;;;0.20;0.20;;;;;;;;;;4975979;28;20201;-69
2021/03/03 05:43:24;;;;;;;0.20;0.20;;;;;;;;;;4984779;28;20202;-67
2021/03/03 05:45:50;;;;;;;0.40;0.40;;;;;;;;;;4984545;28;20212;-68
2021/03/03 05:48:19;;;;;;;0.20;0.20;;;;;;;;;;4982298;28;20252;-70
2021/03/03 05:50:47;;;;;;;2.43;2.33;;;;;;;;;;4984113;28;20198;-69
2021/03/03 05:53:13;;;;;;;0.43;0.43;;;;;;;;;;5002955;28;20218;-68
2021/03/03 05:55:39;;;;;;;0.20;0.20;;;;;;;;;;4996598;28;20540;-68
2021/03/03 05:58:07;;;;;;;0.20;0.20;;;;;;;;;;4995351;28;20225;-68
2021/03/03 06:00:34;;;;;;;0.83;0.83;;;;;;;;;;4988471;28;20431;-68
2021/03/03 06:03:01;;;;;;;0.30;0.30;;;;;;;;;;4976101;28;20372;-68
2021/03/03 06:05:28;;;;;;;0.20;0.20;;;;;;;;;;4968020;28;20230;-68
2021/03/03 06:07:54;;;;;;;0.20;0.20;;;;;;;;;;4992207;28;20294;-67
2021/03/03 06:10:21;;;;;;;0.70;0.70;;;;;;;;;;4979160;28;20206;-68
2021/03/03 06:12:48;;;;;;;0.50;0.50;;;;;;;;;;4968798;28;20201;-69
2021/03/03 06:15:15;;;;;;;0.30;0.30;;;;;;;;;;4990371;28;20205;-68
2021/03/03 06:17:42;;;;;;;0.63;0.63;;;;;;;;;;4967587;28;20256;-67
2021/03/03 06:20:10;;;;;;;0.30;0.30;;;;;;;;;;4981601;28;20213;-68
2021/03/03 06:22:36;;;;;;;1.80;1.70;;;;;;;;;;5000268;28;20208;-67
2021/03/03 06:25:16;;;;;;;0.20;0.20;;;;;;;;;;4985685;28;20375;-68
2021/03/03 06:27:42;;;;;;;0.20;0.20;;;;;;;;;;4994906;28;20516;-69
2021/03/03 06:30:09;;;;;;;1.23;1.23;;;;;;;;;;5000057;28;20206;-70
2021/03/03 06:32:49;;;;;;;0.50;0.50;;;;;;;;;;5000038;28;20207;-68
2021/03/03 06:35:16;;;;;;;0.87;0.87;;;;;;;;;;4996731;28;20206;-68
2021/03/03 06:37:51;;;;;;;0.20;0.20;;;;;;;;;;4986400;28;20243;-70
2021/03/03 06:40:18;;;;;;;0.20;0.20;;;;;;;;;;5002732;28;20209;-68
2021/03/03 06:42:45;;;;;;;0.20;0.20;;;;;;;;;;4996494;28;20205;-69
2021/03/03 06:45:24;;;;;;;0.30;0.30;;;;;;;;;;4981291;28;20505;-70
2021/03/03 06:47:51;;;;;;;0.20;0.20;;;;;;;;;;4998814;28;20210;-70
2021/03/03 06:50:18;;;;;;;0.20;0.20;;;;;;;;;;4985034;28;20213;-70
2021/03/03 06:52:44;;;;;;;0.20;0.20;;;;;;;;;;4987967;28;20201;-69
2021/03/03 06:55:11;;;;;;;0.30;0.30;;;;;;;;;;5002377;28;20365;-70
2021/03/03 06:57:38;;;;;;;0.20;0.20;;;;;;;;;;4983558;28;20226;-69
2021/03/03 07:00:05;;;;;;;0.20;0.20;;;;;;;;;;4983868;28;20206;-70
2021/03/03 07:02:32;;;;;;;0.20;0.20;;;;;;;;;;4979700;28;20202;-70
2021/03/03 07:04:58;;;;;;;0.30;0.30;;;;;;;;;;4986144;28;20228;-71
2021/03/03 07:07:25;;;;;;;2.10;2.00;;;;;;;;;;5003838;28;20204;-70
2021/03/03 07:09:52;;;;;;;0.40;0.40;;;;;;;;;;4999963;28;20201;-68
2021/03/03 07:12:19;;;;;;;0.20;0.20;;;;;;;;;;4989273;28;20420;-62
2021/03/03 07:14:56;;;;;;;0.20;0.20;;;;;;;;;;5000953;28;20198;-62
2021/03/03 07:17:22;;;;;;;0.30;0.30;;;;;;;;;;4997873;28;20423;-63
2021/03/03 07:19:49;;;;;;;0.73;0.73;;;;;;;;;;4997533;28;20208;-62
2021/03/03 07:22:23;;;;;;;0.30;0.30;;;;;;;;;;4985019;28;20201;-62
2021/03/03 07:24:51;;;;;;;0.20;0.20;;;;;;;;;;4996598;28;20484;-62
2021/03/03 07:27:18;;;;;;;0.20;0.20;;;;;;;;;;4998142;28;20208;-63
2021/03/03 07:29:45;;;;;;;0.60;0.60;;;;;;;;;;4984130;28;20289;-64
2021/03/03 07:32:12;;;;;;;0.20;0.20;;;;;;;;;;4988266;28;20201;-62
2021/03/03 07:34:39;;;;;;;0.30;0.30;;;;;;;;;;4986522;28;20201;-63
2021/03/03 07:37:06;;;;;;;0.20;0.20;;;;;;;;;;4988006;28;20374;-62
2021/03/03 07:39:33;;;;;;;0.50;0.50;;;;;;;;;;4985128;28;20431;-62
2021/03/03 07:41:59;;;;;;;0.20;0.20;;;;;;;;;;4996737;28;20389;-64
2021/03/03 07:44:26;;;;;;;0.20;0.20;;;;;;;;;;4998021;28;20260;-62
2021/03/03 07:46:52;;;;;;;8.10;3.30;;;;;;;;;;4973960;28;20197;-62
2021/03/03 07:49:23;;;;;;;0.20;0.20;;;;;;;;;;4985393;28;20201;-62
2021/03/03 07:51:50;;;;;;;0.20;0.20;;;;;;;;;;5004943;28;20206;-62
2021/03/03 07:54:16;;;;;;;0.17;0.17;;;;;;;;;;4982878;28;20511;-62
2021/03/03 07:56:43;;;;;;;0.10;0.10;;;;;;;;;;4988259;28;20510;-63
2021/03/03 07:59:10;;;;;;;0.30;0.30;;;;;;;;;;4986394;28;20202;-64
2021/03/03 08:01:37;;;;;;;0.10;0.10;;;;;;;;;;4985369;28;20205;-63
2021/03/03 08:04:04;;;;;;;0.10;0.10;;;;;;;;;;4983727;28;20249;-63
2021/03/03 08:06:36;;;;;;;0.10;0.10;;;;;;;;;;4983116;28;20198;-62
2021/03/03 08:09:13;;;;;;;0.10;0.10;;;;;;;;;;4988257;28;20211;-64
2021/03/03 08:11:39;;;;;;;0.10;0.10;;;;;;;;;;5010267;28;20244;-62
2021/03/03 08:14:20;;;;;;;0.10;0.10;;;;;;;;;;4981852;28;20204;-62
2021/03/03 08:16:53;;;;;;;0.10;0.10;;;;;;;;;;5001261;28;20228;-63
2021/03/03 08:19:19;;;;;;;0.10;0.10;;;;;;;;;;4997842;28;20365;-62
2021/03/03 08:21:47;;;;;;;2.63;2.43;;;;;;;;;;5004080;28;20549;-61
2021/03/03 08:24:36;;;;;;;0.10;0.10;;;;;;;;;;4987626;28;20205;-70
2021/03/03 08:27:02;;;;;;;0.10;0.10;;;;;;;;;;4990082;28;20252;-69
2021/03/03 08:29:29;;;;;;;0.10;0.10;;;;;;;;;;4978146;28;20220;-69
2021/03/03 08:32:14;;;;;;;0.10;0.10;;;;;;;;;;4987460;28;20204;-69
2021/03/03 08:34:51;;;;;;;0.10;0.10;;;;;;;;;;5003299;28;20248;-70
2021/03/03 08:37:28;;;;;;;0.10;0.10;;;;;;;;;;4982053;28;20230;-71
2021/03/03 08:39:54;;;;;;;3.43;1.33;;;;;;;;;;5021698;28;20208;-70
2021/03/03 08:42:34;;;;;;;0.43;0.43;;;;;;;;;;5000847;28;20209;-70
2021/03/03 08:45:10;;;;;;;6.15;5.78;;;;;;;;;;4975138;28;20212;-71
2021/03/03 08:48:06;;;;;;;0.10;0.10;;;;;;;;;;5003021;28;20256;-71
2021/03/03 08:50:34;;;;;;;0.22;0.22;;;;;;;;;;5004122;28;20503;-71
2021/03/03 08:53:19;;;;;;;0.10;0.10;;;;;;;;;;4983704;28;20241;-71
2021/03/03 08:55:46;;;;;;;0.55;0.55;;;;;;;;;;5001710;28;20202;-70
2021/03/03 08:58:31;;;;;;;0.10;0.10;;;;;;;;;;4987108;28;20249;-71
2021/03/03 09:00:58;;;;;;;0.10;0.10;;;;;;;;;;5005258;28;20206;-70
2021/03/03 09:03:25;;;;;;;0.00;0.00;;;;;;;;;;4988502;28;20215;-69
2021/03/03 09:05:52;;;;;;;0.10;0.10;;;;;;;;;;4990402;28;20507;-69
2021/03/03 09:08:19;;;;;;;1.75;1.40;;;;;;;;;;4990330;28;20206;-69
2021/03/03 09:10:46;;;;;;;0.57;0.57;;;;;;;;;;4989398;28;20212;-70
2021/03/03 09:13:20;;;;;;;0.03;0.03;;;;;;;;;;4988996;28;20229;-70
2021/03/03 09:16:01;;;;;;;3.13;1.17;;;;;;;;;;5004481;28;20245;-70
2021/03/03 09:18:28;;;;;;;0.10;0.10;;;;;;;;;;5004042;28;20302;-70
2021/03/03 09:21:03;;;;;;;0.00;0.00;;;;;;;;;;4986682;28;20536;-72
2021/03/03 09:23:30;;;;;;;0.00;0.00;;;;;;;;;;5005931;28;20203;-70
2021/03/03 09:25:57;;;;;;;0.10;0.10;;;;;;;;;;4987412;28;20205;-71
2021/03/03 09:28:37;;;;;;;0.10;0.10;;;;;;;;;;5005251;28;20515;-71
2021/03/03 09:31:04;;;;;;;0.10;0.10;;;;;;;;;;5005139;28;20199;-71
2021/03/03 09:33:31;;;;;;;0.43;0.43;;;;;;;;;;4991360;28;20207;-69
2021/03/03 09:35:58;;;;;;;0.00;0.00;;;;;;;;;;4985230;28;20199;-70
2021/03/03 09:38:25;;;;;;;3.83;3.20;;;;;;;;;;5003834;28;20232;-72
2021/03/03 09:40:52;;;;;;;0.00;0.00;;;;;;;;;;4984995;28;20484;-72
2021/03/03 09:43:20;;;;;;;0.80;0.80;;;;;;;;;;5005313;28;20245;-71
2021/03/03 09:45:47;;;;;;;0.10;0.10;;;;;;;;;;4995374;28;20203;-70
2021/03/03 09:48:13;;;;;;;2.25;2.15;;;;;;;;;;4990875;28;20273;-70
2021/03/03 09:50:40;;;;;;;0.25;0.25;;;;;;;;;;4985935;28;20302;-69
2021/03/03 09:53:06;;;;;;;0.30;0.30;;;;;;;;;;4996967;28;20199;-71
2021/03/03 09:55:33;;;;;;;1.45;1.45;;;;;;;;;;4986651;28;20270;-72
2021/03/03 09:58:00;;;;;;;0.10;0.10;;;;;;;;;;4999291;28;20226;-74
2021/03/03 10:00:28;;;;;;;0.70;0.70;;;;;;;;;;4984145;28;20245;-70
2021/03/03 10:02:56;;;;;;;0.10;0.10;;;;;;;;;;4979857;28;20202;-71
2021/03/03 10:05:23;;;;;;;0.77;0.70;;;;;;;;;;4988465;28;20248;-70
2021/03/03 10:07:50;;;;;;;0.30;0.30;;;;;;;;;;4989731;28;20301;-69
2021/03/03 10:10:17;;;;;;;0.10;0.10;;;;;;;;;;5005545;28;20559;-71
2021/03/03 10:12:44;;;;;;;0.10;0.10;;;;;;;;;;4982414;28;20195;-70
2021/03/03 10:15:11;;;;;;;0.10;0.10;;;;;;;;;;4987743;28;20580;-71
2021/03/03 10:17:42;;;;;;;0.10;0.10;;;;;;;;;;4989222;28;20278;-69
2021/03/03 10:20:10;;;;;;;0.10;0.10;;;;;;;;;;5017672;28;20222;-72
2021/03/03 10:22:42;;;;;;;0.15;0.15;;;;;;;;;;5002339;28;20365;-72
2021/03/03 10:25:12;;;;;;;0.52;0.52;;;;;;;;;;5005527;28;20231;-73
2021/03/03 10:27:39;;;;;;;0.70;0.63;;;;;;;;;;5006768;28;20204;-74
2021/03/03 10:30:18;;;;;;;0.03;0.03;;;;;;;;;;4984420;28;20216;-72
2021/03/03 10:32:45;;;;;;;0.43;0.43;;;;;;;;;;4986810;28;20248;-71
2021/03/03 10:35:12;;;;;;;0.00;0.00;;;;;;;;;;4971578;28;20283;-70
2021/03/03 10:37:38;;;;;;;0.08;0.08;;;;;;;;;;4983699;28;20227;-72
2021/03/03 10:40:10;;;;;;;0.00;0.00;;;;;;;;;;4986011;28;20204;-72
2021/03/03 10:42:36;;;;;;;0.10;0.10;;;;;;;;;;5005835;28;20279;-72
2021/03/03 10:45:02;;;;;;;0.00;0.00;;;;;;;;;;5002548;28;20205;-71
2021/03/03 10:47:39;;;;;;;0.40;0.40;;;;;;;;;;4992322;28;20312;-72
2021/03/03 10:50:07;;;;;;;0.03;0.03;;;;;;;;;;4989737;28;20215;-71
2021/03/03 10:52:34;;;;;;;1.67;1.58;;;;;;;;;;4985582;28;20250;-72
2021/03/03 10:55:00;;;;;;;0.38;0.38;;;;;;;;;;5005043;28;20231;-72
2021/03/03 10:57:26;;;;;;;0.10;0.10;;;;;;;;;;4990243;28;20504;-71
2021/03/03 11:00:00;;;;;;;0.00;0.00;;;;;;;;;;5002574;28;20234;-72
2021/03/03 11:02:27;;;;;;;0.00;0.00;;;;;;;;;;4992534;28;20327;-71
2021/03/03 11:04:53;;;;;;;0.00;0.00;;;;;;;;;;4988836;28;20343;-72
2021/03/03 11:07:20;;;;;;;0.10;0.10;;;;;;;;;;5004081;28;20204;-73
2021/03/03 11:09:50;;;;;;;0.00;0.00;;;;;;;;;;4980395;28;20202;-72
2021/03/03 11:12:21;;;;;;;1.85;1.75;;;;;;;;;;4986389;28;20205;-71
2021/03/03 11:14:47;;;;;;;0.75;0.63;;;;;;;;;;5003167;28;20208;-69
2021/03/03 11:17:13;;;;;;;4.80;1.85;;;;;;;;;;4987923;28;20247;-70
2021/03/03 11:19:40;;;;;;;0.22;0.22;;;;;;;;;;4987255;28;20200;-70
2021/03/03 11:22:06;;;;;;;0.10;0.10;;;;;;;;;;4974587;28;20211;-70
2021/03/03 11:24:33;;;;;;;0.30;0.30;;;;;;;;;;4968713;28;20200;-70
2021/03/03 11:27:00;;;;;;;0.10;0.10;;;;;;;;;;4965467;28;20205;-68
2021/03/03 11:29:26;;;;;;;0.00;0.00;;;;;;;;;;4968263;28;20200;-71
2021/03/03 11:31:53;;;;;;;0.00;0.00;;;;;;;;;;4965012;28;20215;-71
2021/03/03 11:34:19;;;;;;;0.10;0.10;;;;;;;;;;4971751;28;20208;-71
2021/03/03 11:36:46;;;;;;;0.00;0.00;;;;;;;;;;4982565;28;20300;-68
2021/03/03 11:39:12;;;;;;;0.03;0.03;;;;;;;;;;4969777;28;20201;-67
2021/03/03 11:41:40;;;;;;;0.65;0.65;;;;;;;;;;4960147;28;20304;-68
2021/03/03 11:44:07;;;;;;;0.40;0.40;;;;;;;;;;4963818;28;20202;-68
2021/03/03 11:46:34;;;;;;;0.17;0.17;;;;;;;;;;4961851;28;20503;-69
2021/03/03 11:49:00;;;;;;;0.00;0.00;;;;;;;;;;4967234;28;20280;-68
2021/03/03 11:51:27;;;;;;;1.05;1.05;;;;;;;;;;4969485;28;20423;-69
2021/03/03 11:53:53;;;;;;;0.15;0.15;;;;;;;;;;4964634;28;20201;-68
2021/03/03 11:56:20;;;;;;;0.15;0.15;;;;;;;;;;4956650;28;20274;-68
2021/03/03 11:58:46;;;;;;;0.00;0.00;;;;;;;;;;4967947;28;20225;-68
2021/03/03 12:01:13;;;;;;;0.63;0.63;;;;;;;;;;4978931;28;20206;-69
2021/03/03 12:03:40;;;;;;;0.10;0.10;;;;;;;;;;4983068;28;20277;-69
2021/03/03 12:06:06;;;;;;;0.10;0.10;;;;;;;;;;4962321;28;20209;-68
2021/03/03 12:08:33;;;;;;;0.00;0.00;;;;;;;;;;4969759;28;20209;-71
2021/03/03 12:10:59;;;;;;;0.98;0.98;;;;;;;;;;4966815;28;20500;-72
2021/03/03 12:13:25;;;;;;;0.30;0.30;;;;;;;;;;4965607;28;20221;-71
2021/03/03 12:15:52;;;;;;;0.28;0.28;;;;;;;;;;4999928;28;20211;-69
2021/03/03 12:18:19;;;;;;;0.20;0.20;;;;;;;;;;4983600;28;20234;-68
2021/03/03 12:20:45;;;;;;;0.10;0.10;;;;;;;;;;4973334;28;20217;-69
2021/03/03 12:23:11;;;;;;;0.38;0.38;;;;;;;;;;4987344;28;20325;-72
2021/03/03 12:25:38;;;;;;;0.03;0.03;;;;;;;;;;4984553;28;20303;-69
2021/03/03 12:28:05;;;;;;;0.08;0.08;;;;;;;;;;4977635;28;20367;-71
2021/03/03 12:30:31;;;;;;;0.20;0.20;;;;;;;;;;4978848;28;20207;-70
2021/03/03 12:32:58;;;;;;;2.72;2.58;;;;;;;;;;4996426;28;20214;-71
2021/03/03 12:35:25;;;;;;;0.10;0.10;;;;;;;;;;4995722;28;20203;-71
2021/03/03 12:37:51;;;;;;;0.08;0.08;;;;;;;;;;4988953;28;20225;-69
2021/03/03 12:40:18;;;;;;;0.50;0.50;;;;;;;;;;4987770;28;20206;-69
2021/03/03 12:42:44;;;;;;;0.03;0.03;;;;;;;;;;5002353;28;20225;-72
2021/03/03 12:45:11;;;;;;;0.05;0.05;;;;;;;;;;4999648;28;20213;-69
2021/03/03 12:47:38;;;;;;;0.10;0.10;;;;;;;;;;4989661;28;20202;-71
2021/03/03 12:50:05;;;;;;;0.10;0.10;;;;;;;;;;4986776;28;20202;-71
2021/03/03 12:52:32;;;;;;;0.05;0.05;;;;;;;;;;5012386;28;20207;-72
2021/03/03 12:54:58;;;;;;;0.40;0.40;;;;;;;;;;4989824;28;20205;-71
2021/03/03 12:57:25;;;;;;;0.10;0.10;;;;;;;;;;4984313;28;20292;-69
2021/03/03 12:59:51;;;;;;;0.10;0.10;;;;;;;;;;4983345;28;20202;-71
2021/03/03 13:02:18;;;;;;;0.10;0.10;;;;;;;;;;4990151;28;20203;-69
2021/03/03 13:04:45;;;;;;;0.20;0.20;;;;;;;;;;4986459;28;20248;-69
2021/03/03 13:07:12;;;;;;;0.83;0.83;;;;;;;;;;4996102;28;20296;-70
2021/03/03 13:09:38;;;;;;;0.10;0.10;;;;;;;;;;4983789;28;20203;-69
2021/03/03 13:12:06;;;;;;;0.20;0.20;;;;;;;;;;4995105;28;20227;-69
2021/03/03 13:14:32;;;;;;;0.10;0.10;;;;;;;;;;4992344;28;20318;-68
2021/03/03 13:17:01;;;;;;;4.60;4.20;;;;;;;;;;4981846;28;20254;-68
2021/03/03 13:19:27;;;;;;;0.10;0.10;;;;;;;;;;5018166;28;20199;-68
2021/03/03 13:21:53;;;;;;;0.10;0.10;;;;;;;;;;4981525;28;20211;-69
2021/03/03 13:24:23;;;;;;;1.80;1.70;;;;;;;;;;4993518;28;20395;-69
2021/03/03 13:26:49;;;;;;;0.60;0.47;;;;;;;;;;4984422;28;20236;-69
2021/03/03 13:29:16;;;;;;;0.10;0.10;;;;;;;;;;4985591;28;20284;-69
2021/03/03 13:31:43;;;;;;;0.10;0.10;;;;;;;;;;4984827;28;20228;-68
2021/03/03 13:34:10;;;;;;;0.17;0.17;;;;;;;;;;4982059;28;20203;-72
2021/03/03 13:36:36;;;;;;;0.20;0.20;;;;;;;;;;4981191;28;20434;-68
2021/03/03 13:39:03;;;;;;;0.10;0.10;;;;;;;;;;4980361;28;20215;-70
2021/03/03 13:41:32;;;;;;;0.40;0.40;;;;;;;;;;4986331;28;20205;-70
2021/03/03 13:43:59;;;;;;;0.10;0.10;;;;;;;;;;4984029;28;20213;-73
2021/03/03 13:46:25;;;;;;;0.10;0.10;;;;;;;;;;4984559;28;20439;-69
2021/03/03 13:48:52;;;;;;;0.10;0.10;;;;;;;;;;4983551;28;20351;-70
2021/03/03 13:51:18;;;;;;;0.10;0.10;;;;;;;;;;4980803;28;20210;-69
2021/03/03 13:53:44;;;;;;;0.37;0.37;;;;;;;;;;4983772;28;20223;-70
2021/03/03 13:56:11;;;;;;;0.10;0.10;;;;;;;;;;4968755;28;20228;-70
2021/03/03 13:58:39;;;;;;;0.00;0.00;;;;;;;;;;4969149;28;20226;-70
2021/03/03 14:01:06;;;;;;;0.10;0.10;;;;;;;;;;4976248;28;20206;-71
2021/03/03 14:03:32;;;;;;;0.10;0.10;;;;;;;;;;4999251;28;20390;-69
2021/03/03 14:05:58;;;;;;;2.43;1.60;;;;;;;;;;4982422;28;20290;-69
2021/03/03 14:08:25;;;;;;;0.10;0.10;;;;;;;;;;4978125;28;20199;-70
2021/03/03 14:10:51;;;;;;;0.00;0.00;;;;;;;;;;4999182;28;20210;-69
2021/03/03 14:13:17;;;;;;;0.10;0.10;;;;;;;;;;4982149;28;20211;-69
2021/03/03 14:15:45;;;;;;;0.20;0.20;;;;;;;;;;4990326;28;20235;-70
2021/03/03 14:18:11;;;;;;;1.70;1.70;;;;;;;;;;4981886;28;20278;-69
2021/03/03 14:20:37;;;;;;;0.10;0.10;;;;;;;;;;4993761;28;20325;-71
2021/03/03 14:23:04;;;;;;;0.10;0.10;;;;;;;;;;4984980;28;20204;-71
2021/03/03 14:25:30;;;;;;;0.00;0.00;;;;;;;;;;4979961;28;20223;-71
2021/03/03 14:27:56;;;;;;;0.10;0.10;;;;;;;;;;4978154;28;20208;-70
2021/03/03 14:30:23;;;;;;;0.10;0.10;;;;;;;;;;4996526;28;20205;-71
2021/03/03 14:32:50;;;;;;;0.10;0.10;;;;;;;;;;4983704;28;20230;-70
2021/03/03 14:35:17;;;;;;;0.10;0.10;;;;;;;;;;4980041;28;20213;-69
2021/03/03 14:37:43;;;;;;;0.10;0.10;;;;;;;;;;4994823;28;20228;-69
2021/03/03 14:40:10;;;;;;;0.10;0.10;;;;;;;;;;4984176;28;20203;-70
2021/03/03 14:42:36;;;;;;;0.10;0.10;;;;;;;;;;5003877;28;20224;-68
2021/03/03 14:45:02;;;;;;;0.10;0.10;;;;;;;;;;4992062;28;20424;-68